sensor_id;sensor_type;location;lat;lon;timestamp;P1;durP1;ratioP1;P2;durP2;ratioP2
15393;SDS011;7795;47.986;11.868;2023-03-12T00:00:49;2.77;;;2.23;;
15393;SDS011;7795;47.986;11.868;2023-03-12T00:03:15;5.43;;;2.80;;
15393;SDS011;7795;47.986;11.868;2023-03-12T00:05:41;2.07;;;1.80;;
15393;SDS011;7795;47.986;11.868;2023-03-12T00:08:10;2.03;;;1.50;;
15393;SDS011;7795;47.986;11.868;2023-03-12T00:10:37;2.70;;;1.63;;
15393;SDS011;7795;47.986;11.868;2023-03-12T00:13:04;2.53;;;2.10;;
15393;SDS011;7795;47.986;11.868;2023-03-12T00:15:30;2.63;;;2.23;;
15393;SDS011;7795;47.986;11.868;2023-03-12T00:17:56;1.97;;;1.83;;
15393;SDS011;7795;47.986;11.868;2023-03-12T00:20:22;2.80;;;1.97;;
15393;SDS011;7795;47.986;11.868;2023-03-12T00:22:47;2.00;;;1.70;;
15393;SDS011;7795;47.986;11.868;2023-03-12T00:25:15;3.23;;;1.97;;
15393;SDS011;7795;47.986;11.868;2023-03-12T00:27:41;2.60;;;1.83;;
15393;SDS011;7795;47.986;11.868;2023-03-12T00:30:09;2.23;;;2.03;;
15393;SDS011;7795;47.986;11.868;2023-03-12T00:32:36;3.50;;;1.90;;
15393;SDS011;7795;47.986;11.868;2023-03-12T00:35:02;2.37;;;2.10;;
15393;SDS011;7795;47.986;11.868;2023-03-12T00:37:29;1.97;;;1.77;;
15393;SDS011;7795;47.986;11.868;2023-03-12T00:39:57;2.13;;;1.63;;
15393;SDS011;7795;47.986;11.868;2023-03-12T00:42:24;1.90;;;1.60;;
15393;SDS011;7795;47.986;11.868;2023-03-12T00:44:50;2.30;;;1.90;;
15393;SDS011;7795;47.986;11.868;2023-03-12T00:47:16;1.70;;;1.60;;
15393;SDS011;7795;47.986;11.868;2023-03-12T00:49:41;2.53;;;1.90;;
15393;SDS011;7795;47.986;11.868;2023-03-12T00:52:07;2.37;;;2.17;;
15393;SDS011;7795;47.986;11.868;2023-03-12T00:54:33;3.37;;;1.93;;
15393;SDS011;7795;47.986;11.868;2023-03-12T00:56:59;2.13;;;2.03;;
15393;SDS011;7795;47.986;11.868;2023-03-12T00:59:26;2.20;;;2.00;;
15393;SDS011;7795;47.986;11.868;2023-03-12T01:01:52;2.33;;;1.80;;
15393;SDS011;7795;47.986;11.868;2023-03-12T01:04:17;4.10;;;2.63;;
15393;SDS011;7795;47.986;11.868;2023-03-12T01:06:43;4.60;;;2.90;;
15393;SDS011;7795;47.986;11.868;2023-03-12T01:09:09;3.27;;;2.13;;
15393;SDS011;7795;47.986;11.868;2023-03-12T01:11:35;2.07;;;1.87;;
15393;SDS011;7795;47.986;11.868;2023-03-12T01:14:02;2.57;;;1.70;;
15393;SDS011;7795;47.986;11.868;2023-03-12T01:16:30;2.03;;;1.80;;
15393;SDS011;7795;47.986;11.868;2023-03-12T01:18:56;3.03;;;2.00;;
15393;SDS011;7795;47.986;11.868;2023-03-12T01:21:24;1.70;;;1.60;;
15393;SDS011;7795;47.986;11.868;2023-03-12T01:23:50;1.73;;;1.60;;
15393;SDS011;7795;47.986;11.868;2023-03-12T01:26:16;3.03;;;1.97;;
15393;SDS011;7795;47.986;11.868;2023-03-12T01:28:42;1.70;;;1.60;;
15393;SDS011;7795;47.986;11.868;2023-03-12T01:31:09;2.40;;;2.20;;
15393;SDS011;7795;47.986;11.868;2023-03-12T01:33:38;3.37;;;1.80;;
15393;SDS011;7795;47.986;11.868;2023-03-12T01:36:04;3.00;;;2.03;;
15393;SDS011;7795;47.986;11.868;2023-03-12T01:38:38;2.63;;;1.83;;
15393;SDS011;7795;47.986;11.868;2023-03-12T01:41:04;5.57;;;2.07;;
15393;SDS011;7795;47.986;11.868;2023-03-12T01:43:31;2.73;;;1.87;;
15393;SDS011;7795;47.986;11.868;2023-03-12T01:48:55;3.23;;;2.77;;
15393;SDS011;7795;47.986;11.868;2023-03-12T01:51:23;2.70;;;2.30;;
15393;SDS011;7795;47.986;11.868;2023-03-12T01:53:51;2.20;;;2.00;;
15393;SDS011;7795;47.986;11.868;2023-03-12T01:56:20;4.77;;;2.30;;
15393;SDS011;7795;47.986;11.868;2023-03-12T01:58:48;2.83;;;2.20;;
15393;SDS011;7795;47.986;11.868;2023-03-12T02:01:17;2.47;;;1.93;;
15393;SDS011;7795;47.986;11.868;2023-03-12T02:03:43;2.03;;;1.80;;
15393;SDS011;7795;47.986;11.868;2023-03-12T02:06:13;3.00;;;2.50;;
15393;SDS011;7795;47.986;11.868;2023-03-12T02:08:40;2.77;;;2.30;;
15393;SDS011;7795;47.986;11.868;2023-03-12T02:11:08;2.93;;;2.20;;
15393;SDS011;7795;47.986;11.868;2023-03-12T02:13:34;2.63;;;2.30;;
15393;SDS011;7795;47.986;11.868;2023-03-12T02:16:00;5.87;;;2.57;;
15393;SDS011;7795;47.986;11.868;2023-03-12T02:18:26;3.60;;;3.10;;
15393;SDS011;7795;47.986;11.868;2023-03-12T02:20:54;2.50;;;2.30;;
15393;SDS011;7795;47.986;11.868;2023-03-12T02:23:26;3.13;;;2.20;;
15393;SDS011;7795;47.986;11.868;2023-03-12T02:25:57;3.90;;;2.77;;
15393;SDS011;7795;47.986;11.868;2023-03-12T02:28:26;12.13;;;2.80;;
15393;SDS011;7795;47.986;11.868;2023-03-12T02:30:56;2.70;;;2.50;;
15393;SDS011;7795;47.986;11.868;2023-03-12T02:33:24;3.47;;;2.53;;
15393;SDS011;7795;47.986;11.868;2023-03-12T02:35:51;5.27;;;3.33;;
15393;SDS011;7795;47.986;11.868;2023-03-12T02:38:34;3.53;;;2.50;;
15393;SDS011;7795;47.986;11.868;2023-03-12T02:41:09;3.23;;;2.40;;
15393;SDS011;7795;47.986;11.868;2023-03-12T02:43:37;2.20;;;2.00;;
15393;SDS011;7795;47.986;11.868;2023-03-12T02:46:03;3.60;;;2.30;;
15393;SDS011;7795;47.986;11.868;2023-03-12T02:48:30;3.80;;;2.20;;
15393;SDS011;7795;47.986;11.868;2023-03-12T02:50:56;2.63;;;2.07;;
15393;SDS011;7795;47.986;11.868;2023-03-12T02:53:21;2.40;;;2.20;;
15393;SDS011;7795;47.986;11.868;2023-03-12T02:55:47;2.67;;;1.87;;
15393;SDS011;7795;47.986;11.868;2023-03-12T02:58:14;2.17;;;1.97;;
15393;SDS011;7795;47.986;11.868;2023-03-12T03:00:40;2.33;;;2.13;;
15393;SDS011;7795;47.986;11.868;2023-03-12T03:03:06;2.33;;;2.00;;
15393;SDS011;7795;47.986;11.868;2023-03-12T03:05:31;3.63;;;2.30;;
15393;SDS011;7795;47.986;11.868;2023-03-12T03:07:57;2.77;;;2.50;;
15393;SDS011;7795;47.986;11.868;2023-03-12T03:10:23;3.30;;;2.60;;
15393;SDS011;7795;47.986;11.868;2023-03-12T03:12:49;2.97;;;2.17;;
15393;SDS011;7795;47.986;11.868;2023-03-12T03:15:17;3.67;;;2.17;;
15393;SDS011;7795;47.986;11.868;2023-03-12T03:17:42;2.60;;;1.90;;
15393;SDS011;7795;47.986;11.868;2023-03-12T03:20:08;2.57;;;2.37;;
15393;SDS011;7795;47.986;11.868;2023-03-12T03:22:36;3.20;;;2.27;;
15393;SDS011;7795;47.986;11.868;2023-03-12T03:25:02;3.47;;;2.40;;
15393;SDS011;7795;47.986;11.868;2023-03-12T03:27:28;2.43;;;2.23;;
15393;SDS011;7795;47.986;11.868;2023-03-12T03:29:54;2.87;;;2.30;;
15393;SDS011;7795;47.986;11.868;2023-03-12T03:32:21;3.43;;;2.43;;
15393;SDS011;7795;47.986;11.868;2023-03-12T03:34:47;3.63;;;2.63;;
15393;SDS011;7795;47.986;11.868;2023-03-12T03:37:12;2.40;;;2.03;;
15393;SDS011;7795;47.986;11.868;2023-03-12T03:39:38;2.53;;;1.93;;
15393;SDS011;7795;47.986;11.868;2023-03-12T03:42:04;3.07;;;2.40;;
15393;SDS011;7795;47.986;11.868;2023-03-12T03:44:30;2.10;;;1.90;;
15393;SDS011;7795;47.986;11.868;2023-03-12T03:46:55;3.37;;;2.60;;
15393;SDS011;7795;47.986;11.868;2023-03-12T03:49:23;2.20;;;2.00;;
15393;SDS011;7795;47.986;11.868;2023-03-12T03:51:48;2.80;;;2.00;;
15393;SDS011;7795;47.986;11.868;2023-03-12T03:54:15;2.80;;;2.43;;
15393;SDS011;7795;47.986;11.868;2023-03-12T03:56:41;3.03;;;2.40;;
15393;SDS011;7795;47.986;11.868;2023-03-12T03:59:07;3.83;;;2.20;;
15393;SDS011;7795;47.986;11.868;2023-03-12T04:01:33;2.37;;;1.80;;
15393;SDS011;7795;47.986;11.868;2023-03-12T04:04:00;3.73;;;2.47;;
15393;SDS011;7795;47.986;11.868;2023-03-12T04:06:28;2.17;;;1.60;;
15393;SDS011;7795;47.986;11.868;2023-03-12T04:08:54;2.40;;;2.20;;
15393;SDS011;7795;47.986;11.868;2023-03-12T04:11:20;2.93;;;2.60;;
15393;SDS011;7795;47.986;11.868;2023-03-12T04:13:46;3.20;;;2.93;;
15393;SDS011;7795;47.986;11.868;2023-03-12T04:16:13;5.93;;;2.90;;
15393;SDS011;7795;47.986;11.868;2023-03-12T04:18:39;3.00;;;2.50;;
15393;SDS011;7795;47.986;11.868;2023-03-12T04:21:06;2.83;;;2.53;;
15393;SDS011;7795;47.986;11.868;2023-03-12T04:23:40;3.30;;;3.00;;
15393;SDS011;7795;47.986;11.868;2023-03-12T04:26:06;2.83;;;2.60;;
15393;SDS011;7795;47.986;11.868;2023-03-12T04:28:32;3.40;;;2.90;;
15393;SDS011;7795;47.986;11.868;2023-03-12T04:30:59;3.27;;;2.97;;
15393;SDS011;7795;47.986;11.868;2023-03-12T04:33:26;3.50;;;3.20;;
15393;SDS011;7795;47.986;11.868;2023-03-12T04:35:52;3.57;;;2.97;;
15393;SDS011;7795;47.986;11.868;2023-03-12T04:38:18;3.50;;;2.80;;
15393;SDS011;7795;47.986;11.868;2023-03-12T04:40:45;4.20;;;3.03;;
15393;SDS011;7795;47.986;11.868;2023-03-12T04:43:11;3.07;;;2.77;;
15393;SDS011;7795;47.986;11.868;2023-03-12T04:45:37;3.93;;;2.93;;
15393;SDS011;7795;47.986;11.868;2023-03-12T04:48:03;3.37;;;3.07;;
15393;SDS011;7795;47.986;11.868;2023-03-12T04:50:29;5.23;;;3.33;;
15393;SDS011;7795;47.986;11.868;2023-03-12T04:52:55;5.07;;;3.00;;
15393;SDS011;7795;47.986;11.868;2023-03-12T04:55:21;3.90;;;2.70;;
15393;SDS011;7795;47.986;11.868;2023-03-12T04:57:49;4.87;;;3.83;;
15393;SDS011;7795;47.986;11.868;2023-03-12T05:00:15;4.20;;;3.50;;
15393;SDS011;7795;47.986;11.868;2023-03-12T05:02:41;3.90;;;3.40;;
15393;SDS011;7795;47.986;11.868;2023-03-12T05:05:09;3.50;;;3.20;;
15393;SDS011;7795;47.986;11.868;2023-03-12T05:07:35;5.50;;;4.80;;
15393;SDS011;7795;47.986;11.868;2023-03-12T05:10:01;6.10;;;5.07;;
15393;SDS011;7795;47.986;11.868;2023-03-12T05:12:27;5.10;;;4.60;;
15393;SDS011;7795;47.986;11.868;2023-03-12T05:14:54;10.70;;;8.33;;
15393;SDS011;7795;47.986;11.868;2023-03-12T05:17:20;8.57;;;6.87;;
15393;SDS011;7795;47.986;11.868;2023-03-12T05:19:45;6.73;;;5.53;;
15393;SDS011;7795;47.986;11.868;2023-03-12T05:22:11;5.97;;;4.80;;
15393;SDS011;7795;47.986;11.868;2023-03-12T05:24:37;5.60;;;4.40;;
15393;SDS011;7795;47.986;11.868;2023-03-12T05:27:03;4.97;;;4.23;;
15393;SDS011;7795;47.986;11.868;2023-03-12T05:29:29;3.83;;;3.47;;
15393;SDS011;7795;47.986;11.868;2023-03-12T05:32:00;3.93;;;3.53;;
15393;SDS011;7795;47.986;11.868;2023-03-12T05:34:26;4.23;;;3.83;;
15393;SDS011;7795;47.986;11.868;2023-03-12T05:36:54;4.13;;;3.67;;
15393;SDS011;7795;47.986;11.868;2023-03-12T05:39:20;4.83;;;3.20;;
15393;SDS011;7795;47.986;11.868;2023-03-12T05:41:45;4.50;;;3.70;;
15393;SDS011;7795;47.986;11.868;2023-03-12T05:44:11;4.37;;;3.80;;
15393;SDS011;7795;47.986;11.868;2023-03-12T05:46:40;4.60;;;3.77;;
15393;SDS011;7795;47.986;11.868;2023-03-12T05:49:07;4.07;;;3.50;;
15393;SDS011;7795;47.986;11.868;2023-03-12T05:51:33;4.57;;;3.60;;
15393;SDS011;7795;47.986;11.868;2023-03-12T05:53:59;3.47;;;2.87;;
15393;SDS011;7795;47.986;11.868;2023-03-12T05:56:25;4.07;;;3.43;;
15393;SDS011;7795;47.986;11.868;2023-03-12T05:58:51;3.73;;;3.20;;
15393;SDS011;7795;47.986;11.868;2023-03-12T06:01:19;5.37;;;3.60;;
15393;SDS011;7795;47.986;11.868;2023-03-12T06:03:46;3.40;;;3.10;;
15393;SDS011;7795;47.986;11.868;2023-03-12T06:06:13;5.63;;;3.70;;
15393;SDS011;7795;47.986;11.868;2023-03-12T06:08:41;3.73;;;3.20;;
15393;SDS011;7795;47.986;11.868;2023-03-12T06:11:07;3.90;;;3.47;;
15393;SDS011;7795;47.986;11.868;2023-03-12T06:13:33;3.93;;;3.50;;
15393;SDS011;7795;47.986;11.868;2023-03-12T06:16:02;3.20;;;2.87;;
15393;SDS011;7795;47.986;11.868;2023-03-12T06:18:28;3.90;;;3.13;;
15393;SDS011;7795;47.986;11.868;2023-03-12T06:20:54;3.30;;;3.00;;
15393;SDS011;7795;47.986;11.868;2023-03-12T06:23:21;3.60;;;3.13;;
15393;SDS011;7795;47.986;11.868;2023-03-12T06:25:47;3.37;;;3.07;;
15393;SDS011;7795;47.986;11.868;2023-03-12T06:28:13;4.67;;;3.40;;
15393;SDS011;7795;47.986;11.868;2023-03-12T06:30:38;5.20;;;3.40;;
15393;SDS011;7795;47.986;11.868;2023-03-12T06:33:04;4.63;;;4.10;;
15393;SDS011;7795;47.986;11.868;2023-03-12T06:35:33;3.40;;;3.10;;
15393;SDS011;7795;47.986;11.868;2023-03-12T06:37:58;4.03;;;3.30;;
15393;SDS011;7795;47.986;11.868;2023-03-12T06:40:26;5.53;;;3.73;;
15393;SDS011;7795;47.986;11.868;2023-03-12T06:42:51;6.10;;;3.77;;
15393;SDS011;7795;47.986;11.868;2023-03-12T06:45:17;3.43;;;3.13;;
15393;SDS011;7795;47.986;11.868;2023-03-12T06:47:43;4.03;;;3.10;;
15393;SDS011;7795;47.986;11.868;2023-03-12T06:50:11;4.33;;;3.10;;
15393;SDS011;7795;47.986;11.868;2023-03-12T06:52:37;3.80;;;3.20;;
15393;SDS011;7795;47.986;11.868;2023-03-12T06:55:04;3.37;;;2.80;;
15393;SDS011;7795;47.986;11.868;2023-03-12T06:57:32;5.03;;;3.10;;
15393;SDS011;7795;47.986;11.868;2023-03-12T06:59:58;3.33;;;2.80;;
15393;SDS011;7795;47.986;11.868;2023-03-12T07:02:23;4.20;;;2.40;;
15393;SDS011;7795;47.986;11.868;2023-03-12T07:04:49;3.43;;;2.70;;
15393;SDS011;7795;47.986;11.868;2023-03-12T07:07:15;2.60;;;2.40;;
15393;SDS011;7795;47.986;11.868;2023-03-12T07:09:41;3.83;;;2.63;;
15393;SDS011;7795;47.986;11.868;2023-03-12T07:12:07;2.60;;;2.37;;
15393;SDS011;7795;47.986;11.868;2023-03-12T07:14:34;2.87;;;2.57;;
15393;SDS011;7795;47.986;11.868;2023-03-12T07:17:00;3.20;;;2.70;;
15393;SDS011;7795;47.986;11.868;2023-03-12T07:19:26;2.13;;;1.93;;
15393;SDS011;7795;47.986;11.868;2023-03-12T07:21:53;3.07;;;2.60;;
15393;SDS011;7795;47.986;11.868;2023-03-12T07:24:19;3.67;;;2.37;;
15393;SDS011;7795;47.986;11.868;2023-03-12T07:26:45;3.67;;;2.33;;
15393;SDS011;7795;47.986;11.868;2023-03-12T07:29:11;3.60;;;2.37;;
15393;SDS011;7795;47.986;11.868;2023-03-12T07:31:38;5.10;;;3.23;;
15393;SDS011;7795;47.986;11.868;2023-03-12T07:34:04;2.90;;;2.60;;
15393;SDS011;7795;47.986;11.868;2023-03-12T07:36:30;2.80;;;2.50;;
15393;SDS011;7795;47.986;11.868;2023-03-12T07:38:56;3.20;;;2.90;;
15393;SDS011;7795;47.986;11.868;2023-03-12T07:41:22;2.80;;;2.50;;
15393;SDS011;7795;47.986;11.868;2023-03-12T07:43:47;2.97;;;2.60;;
15393;SDS011;7795;47.986;11.868;2023-03-12T07:46:13;2.67;;;2.47;;
15393;SDS011;7795;47.986;11.868;2023-03-12T07:48:40;3.20;;;2.37;;
15393;SDS011;7795;47.986;11.868;2023-03-12T07:51:06;3.43;;;2.13;;
15393;SDS011;7795;47.986;11.868;2023-03-12T07:53:32;4.53;;;2.47;;
15393;SDS011;7795;47.986;11.868;2023-03-12T07:55:58;3.10;;;2.23;;
15393;SDS011;7795;47.986;11.868;2023-03-12T07:58:23;2.50;;;2.30;;
15393;SDS011;7795;47.986;11.868;2023-03-12T08:00:49;2.87;;;2.40;;
15393;SDS011;7795;47.986;11.868;2023-03-12T08:03:15;4.70;;;4.30;;
15393;SDS011;7795;47.986;11.868;2023-03-12T08:05:42;3.20;;;2.90;;
15393;SDS011;7795;47.986;11.868;2023-03-12T08:08:08;2.97;;;2.77;;
15393;SDS011;7795;47.986;11.868;2023-03-12T08:10:34;2.70;;;2.50;;
15393;SDS011;7795;47.986;11.868;2023-03-12T08:13:01;3.97;;;2.73;;
15393;SDS011;7795;47.986;11.868;2023-03-12T08:15:26;3.37;;;2.50;;
15393;SDS011;7795;47.986;11.868;2023-03-12T08:17:52;3.37;;;2.77;;
15393;SDS011;7795;47.986;11.868;2023-03-12T08:20:18;3.47;;;2.50;;
15393;SDS011;7795;47.986;11.868;2023-03-12T08:22:48;2.97;;;2.27;;
15393;SDS011;7795;47.986;11.868;2023-03-12T08:25:14;3.10;;;2.80;;
15393;SDS011;7795;47.986;11.868;2023-03-12T08:27:40;3.83;;;2.73;;
15393;SDS011;7795;47.986;11.868;2023-03-12T08:30:06;3.50;;;2.70;;
15393;SDS011;7795;47.986;11.868;2023-03-12T08:32:32;3.70;;;2.53;;
15393;SDS011;7795;47.986;11.868;2023-03-12T08:34:58;3.90;;;2.50;;
15393;SDS011;7795;47.986;11.868;2023-03-12T08:37:24;4.97;;;3.30;;
15393;SDS011;7795;47.986;11.868;2023-03-12T08:39:51;3.70;;;2.67;;
15393;SDS011;7795;47.986;11.868;2023-03-12T08:42:17;3.97;;;2.60;;
15393;SDS011;7795;47.986;11.868;2023-03-12T08:44:42;4.20;;;2.70;;
15393;SDS011;7795;47.986;11.868;2023-03-12T08:47:08;2.53;;;2.27;;
15393;SDS011;7795;47.986;11.868;2023-03-12T08:49:34;2.67;;;2.47;;
15393;SDS011;7795;47.986;11.868;2023-03-12T08:51:59;3.17;;;2.80;;
15393;SDS011;7795;47.986;11.868;2023-03-12T08:54:25;3.20;;;2.70;;
15393;SDS011;7795;47.986;11.868;2023-03-12T08:56:53;4.03;;;2.77;;
15393;SDS011;7795;47.986;11.868;2023-03-12T08:59:19;2.60;;;2.40;;
15393;SDS011;7795;47.986;11.868;2023-03-12T09:01:45;2.93;;;2.63;;
15393;SDS011;7795;47.986;11.868;2023-03-12T09:04:11;3.47;;;2.73;;
15393;SDS011;7795;47.986;11.868;2023-03-12T09:06:36;4.00;;;3.30;;
15393;SDS011;7795;47.986;11.868;2023-03-12T09:09:02;2.60;;;2.40;;
15393;SDS011;7795;47.986;11.868;2023-03-12T09:11:29;2.93;;;2.53;;
15393;SDS011;7795;47.986;11.868;2023-03-12T09:13:57;2.83;;;2.50;;
15393;SDS011;7795;47.986;11.868;2023-03-12T09:16:23;2.40;;;2.20;;
15393;SDS011;7795;47.986;11.868;2023-03-12T09:18:48;2.20;;;2.00;;
15393;SDS011;7795;47.986;11.868;2023-03-12T09:21:14;2.40;;;2.20;;
15393;SDS011;7795;47.986;11.868;2023-03-12T09:23:40;2.47;;;2.27;;
15393;SDS011;7795;47.986;11.868;2023-03-12T09:26:07;2.60;;;2.10;;
15393;SDS011;7795;47.986;11.868;2023-03-12T09:28:33;1.80;;;1.70;;
15393;SDS011;7795;47.986;11.868;2023-03-12T09:31:01;2.20;;;2.00;;
15393;SDS011;7795;47.986;11.868;2023-03-12T09:33:27;1.70;;;1.60;;
15393;SDS011;7795;47.986;11.868;2023-03-12T09:35:55;1.97;;;1.80;;
15393;SDS011;7795;47.986;11.868;2023-03-12T09:38:22;2.00;;;1.80;;
15393;SDS011;7795;47.986;11.868;2023-03-12T09:40:48;1.73;;;1.63;;
15393;SDS011;7795;47.986;11.868;2023-03-12T09:43:16;1.50;;;1.40;;
15393;SDS011;7795;47.986;11.868;2023-03-12T09:45:47;1.80;;;1.70;;
15393;SDS011;7795;47.986;11.868;2023-03-12T09:48:15;1.47;;;1.33;;
15393;SDS011;7795;47.986;11.868;2023-03-12T09:50:46;2.33;;;1.50;;
15393;SDS011;7795;47.986;11.868;2023-03-12T09:53:15;1.13;;;1.10;;
15393;SDS011;7795;47.986;11.868;2023-03-12T09:55:47;1.37;;;1.20;;
15393;SDS011;7795;47.986;11.868;2023-03-12T09:58:17;1.67;;;1.30;;
15393;SDS011;7795;47.986;11.868;2023-03-12T10:00:49;1.40;;;1.30;;
15393;SDS011;7795;47.986;11.868;2023-03-12T10:03:24;1.47;;;1.37;;
15393;SDS011;7795;47.986;11.868;2023-03-12T10:06:00;1.57;;;1.30;;
15393;SDS011;7795;47.986;11.868;2023-03-12T10:08:35;1.50;;;1.30;;
15393;SDS011;7795;47.986;11.868;2023-03-12T10:11:12;1.40;;;1.30;;
15393;SDS011;7795;47.986;11.868;2023-03-12T10:13:49;1.63;;;1.53;;
15393;SDS011;7795;47.986;11.868;2023-03-12T10:16:29;1.60;;;1.50;;
15393;SDS011;7795;47.986;11.868;2023-03-12T10:19:13;1.67;;;1.57;;
15393;SDS011;7795;47.986;11.868;2023-03-12T10:21:48;1.30;;;1.20;;
15393;SDS011;7795;47.986;11.868;2023-03-12T10:24:20;2.47;;;1.50;;
15393;SDS011;7795;47.986;11.868;2023-03-12T10:26:56;1.83;;;1.37;;
15393;SDS011;7795;47.986;11.868;2023-03-12T10:29:23;1.83;;;1.50;;
15393;SDS011;7795;47.986;11.868;2023-03-12T10:31:52;2.07;;;1.73;;
15393;SDS011;7795;47.986;11.868;2023-03-12T10:34:27;1.83;;;1.60;;
15393;SDS011;7795;47.986;11.868;2023-03-12T10:36:57;1.97;;;1.87;;
15393;SDS011;7795;47.986;11.868;2023-03-12T10:39:26;2.40;;;2.20;;
15393;SDS011;7795;47.986;11.868;2023-03-12T10:41:52;1.57;;;1.47;;
15393;SDS011;7795;47.986;11.868;2023-03-12T10:44:24;3.63;;;1.73;;
15393;SDS011;7795;47.986;11.868;2023-03-12T10:46:51;1.67;;;1.53;;
15393;SDS011;7795;47.986;11.868;2023-03-12T10:49:27;1.73;;;1.53;;
15393;SDS011;7795;47.986;11.868;2023-03-12T10:51:55;3.10;;;1.50;;
15393;SDS011;7795;47.986;11.868;2023-03-12T10:54:26;2.03;;;1.27;;
15393;SDS011;7795;47.986;11.868;2023-03-12T10:56:54;1.60;;;1.50;;
15393;SDS011;7795;47.986;11.868;2023-03-12T10:59:20;1.43;;;1.33;;
15393;SDS011;7795;47.986;11.868;2023-03-12T11:01:47;2.10;;;1.90;;
15393;SDS011;7795;47.986;11.868;2023-03-12T11:04:16;2.00;;;1.70;;
15393;SDS011;7795;47.986;11.868;2023-03-12T11:06:46;3.30;;;2.70;;
15393;SDS011;7795;47.986;11.868;2023-03-12T11:09:32;2.43;;;1.70;;
15393;SDS011;7795;47.986;11.868;2023-03-12T11:11:57;1.40;;;1.30;;
15393;SDS011;7795;47.986;11.868;2023-03-12T11:14:24;2.53;;;1.80;;
15393;SDS011;7795;47.986;11.868;2023-03-12T11:16:51;1.90;;;1.70;;
15393;SDS011;7795;47.986;11.868;2023-03-12T11:19:25;2.10;;;1.90;;
15393;SDS011;7795;47.986;11.868;2023-03-12T11:21:54;1.67;;;1.57;;
15393;SDS011;7795;47.986;11.868;2023-03-12T11:24:22;1.73;;;1.60;;
15393;SDS011;7795;47.986;11.868;2023-03-12T11:26:48;1.50;;;1.40;;
15393;SDS011;7795;47.986;11.868;2023-03-12T11:29:24;1.33;;;1.23;;
15393;SDS011;7795;47.986;11.868;2023-03-12T11:32:02;2.30;;;1.50;;
15393;SDS011;7795;47.986;11.868;2023-03-12T11:34:35;1.40;;;1.30;;
15393;SDS011;7795;47.986;11.868;2023-03-12T11:37:05;3.20;;;2.90;;
15393;SDS011;7795;47.986;11.868;2023-03-12T11:39:37;2.43;;;2.23;;
15393;SDS011;7795;47.986;11.868;2023-03-12T11:42:33;1.80;;;1.70;;
15393;SDS011;7795;47.986;11.868;2023-03-12T11:45:13;2.23;;;1.80;;
15393;SDS011;7795;47.986;11.868;2023-03-12T11:47:50;1.47;;;1.37;;
15393;SDS011;7795;47.986;11.868;2023-03-12T11:50:40;1.43;;;1.33;;
15393;SDS011;7795;47.986;11.868;2023-03-12T11:53:20;1.50;;;1.40;;
15393;SDS011;7795;47.986;11.868;2023-03-12T11:55:57;1.50;;;1.40;;
15393;SDS011;7795;47.986;11.868;2023-03-12T11:58:44;1.43;;;1.33;;
15393;SDS011;7795;47.986;11.868;2023-03-12T12:01:20;1.43;;;1.33;;
15393;SDS011;7795;47.986;11.868;2023-03-12T12:03:59;1.50;;;1.40;;
15393;SDS011;7795;47.986;11.868;2023-03-12T12:06:54;1.33;;;1.23;;
15393;SDS011;7795;47.986;11.868;2023-03-12T12:09:33;1.60;;;1.50;;
15393;SDS011;7795;47.986;11.868;2023-03-12T12:12:11;1.47;;;1.37;;
15393;SDS011;7795;47.986;11.868;2023-03-12T12:15:08;1.67;;;1.50;;
15393;SDS011;7795;47.986;11.868;2023-03-12T12:17:44;1.20;;;1.20;;
15393;SDS011;7795;47.986;11.868;2023-03-12T12:20:24;1.50;;;1.40;;
15393;SDS011;7795;47.986;11.868;2023-03-12T12:23:00;1.97;;;1.73;;
15393;SDS011;7795;47.986;11.868;2023-03-12T12:25:51;3.17;;;1.90;;
15393;SDS011;7795;47.986;11.868;2023-03-12T12:28:48;1.90;;;1.80;;
15393;SDS011;7795;47.986;11.868;2023-03-12T12:31:23;1.60;;;1.50;;
15393;SDS011;7795;47.986;11.868;2023-03-12T12:34:05;1.70;;;1.60;;
15393;SDS011;7795;47.986;11.868;2023-03-12T12:36:42;1.60;;;1.50;;
15393;SDS011;7795;47.986;11.868;2023-03-12T12:39:14;1.60;;;1.50;;
15393;SDS011;7795;47.986;11.868;2023-03-12T12:41:46;1.80;;;1.70;;
15393;SDS011;7795;47.986;11.868;2023-03-12T12:44:15;1.70;;;1.60;;
15393;SDS011;7795;47.986;11.868;2023-03-12T12:46:46;4.67;;;1.63;;
15393;SDS011;7795;47.986;11.868;2023-03-12T12:49:17;1.73;;;1.63;;
15393;SDS011;7795;47.986;11.868;2023-03-12T12:51:47;2.63;;;1.77;;
15393;SDS011;7795;47.986;11.868;2023-03-12T12:54:17;2.00;;;1.80;;
15393;SDS011;7795;47.986;11.868;2023-03-12T12:56:49;1.40;;;1.30;;
15393;SDS011;7795;47.986;11.868;2023-03-12T12:59:20;1.90;;;1.77;;
15393;SDS011;7795;47.986;11.868;2023-03-12T13:01:55;1.93;;;1.73;;
15393;SDS011;7795;47.986;11.868;2023-03-12T13:04:23;2.07;;;1.93;;
15393;SDS011;7795;47.986;11.868;2023-03-12T13:06:55;2.93;;;2.40;;
15393;SDS011;7795;47.986;11.868;2023-03-12T13:09:33;2.57;;;2.30;;
15393;SDS011;7795;47.986;11.868;2023-03-12T13:12:17;3.23;;;2.47;;
15393;SDS011;7795;47.986;11.868;2023-03-12T13:14:46;2.80;;;2.17;;
15393;SDS011;7795;47.986;11.868;2023-03-12T13:17:19;3.13;;;2.83;;
15393;SDS011;7795;47.986;11.868;2023-03-12T13:19:46;2.43;;;2.20;;
15393;SDS011;7795;47.986;11.868;2023-03-12T13:22:17;2.50;;;2.30;;
15393;SDS011;7795;47.986;11.868;2023-03-12T13:24:50;2.60;;;2.13;;
15393;SDS011;7795;47.986;11.868;2023-03-12T13:27:28;2.90;;;2.03;;
15393;SDS011;7795;47.986;11.868;2023-03-12T13:29:54;3.00;;;2.50;;
15393;SDS011;7795;47.986;11.868;2023-03-12T13:32:37;2.93;;;2.67;;
15393;SDS011;7795;47.986;11.868;2023-03-12T13:35:31;3.27;;;2.37;;
15393;SDS011;7795;47.986;11.868;2023-03-12T13:38:01;2.60;;;2.40;;
15393;SDS011;7795;47.986;11.868;2023-03-12T13:40:37;2.50;;;2.30;;
15393;SDS011;7795;47.986;11.868;2023-03-12T13:43:31;2.93;;;2.00;;
15393;SDS011;7795;47.986;11.868;2023-03-12T13:49:04;2.47;;;2.27;;
15393;SDS011;7795;47.986;11.868;2023-03-12T13:51:41;2.40;;;2.20;;
15393;SDS011;7795;47.986;11.868;2023-03-12T13:54:12;2.20;;;2.00;;
15393;SDS011;7795;47.986;11.868;2023-03-12T13:56:43;2.90;;;2.60;;
15393;SDS011;7795;47.986;11.868;2023-03-12T13:59:14;3.73;;;2.90;;
15393;SDS011;7795;47.986;11.868;2023-03-12T14:01:44;4.03;;;3.60;;
15393;SDS011;7795;47.986;11.868;2023-03-12T14:04:14;3.23;;;2.87;;
15393;SDS011;7795;47.986;11.868;2023-03-12T14:06:51;2.60;;;2.40;;
15393;SDS011;7795;47.986;11.868;2023-03-12T14:09:26;2.73;;;2.30;;
15393;SDS011;7795;47.986;11.868;2023-03-12T14:12:00;2.07;;;1.97;;
15393;SDS011;7795;47.986;11.868;2023-03-12T14:14:34;5.50;;;4.60;;
15393;SDS011;7795;47.986;11.868;2023-03-12T14:17:14;5.37;;;3.70;;
15393;SDS011;7795;47.986;11.868;2023-03-12T14:19:45;3.77;;;3.23;;
15393;SDS011;7795;47.986;11.868;2023-03-12T14:22:13;3.90;;;3.37;;
15393;SDS011;7795;47.986;11.868;2023-03-12T14:24:40;9.23;;;7.70;;
15393;SDS011;7795;47.986;11.868;2023-03-12T14:27:14;6.97;;;5.33;;
15393;SDS011;7795;47.986;11.868;2023-03-12T14:29:45;7.97;;;7.17;;
15393;SDS011;7795;47.986;11.868;2023-03-12T14:32:16;5.97;;;5.30;;
15393;SDS011;7795;47.986;11.868;2023-03-12T14:34:44;4.93;;;4.43;;
15393;SDS011;7795;47.986;11.868;2023-03-12T14:37:14;3.50;;;3.20;;
15393;SDS011;7795;47.986;11.868;2023-03-12T14:39:44;2.90;;;2.70;;
15393;SDS011;7795;47.986;11.868;2023-03-12T14:42:17;2.43;;;2.23;;
15393;SDS011;7795;47.986;11.868;2023-03-12T14:44:56;2.90;;;2.70;;
15393;SDS011;7795;47.986;11.868;2023-03-12T14:47:23;2.50;;;2.30;;
15393;SDS011;7795;47.986;11.868;2023-03-12T14:49:48;3.23;;;2.33;;
15393;SDS011;7795;47.986;11.868;2023-03-12T14:52:19;3.20;;;2.90;;
15393;SDS011;7795;47.986;11.868;2023-03-12T14:54:54;2.47;;;2.20;;
15393;SDS011;7795;47.986;11.868;2023-03-12T14:57:20;2.60;;;2.37;;
15393;SDS011;7795;47.986;11.868;2023-03-12T14:59:50;2.43;;;2.23;;
15393;SDS011;7795;47.986;11.868;2023-03-12T15:02:19;8.27;;;5.63;;
15393;SDS011;7795;47.986;11.868;2023-03-12T15:04:46;5.53;;;4.77;;